Time;durP1;ratioP1;P1;durP2;ratioP2;P2;SDS_P1;SDS_P2;PMS_P1;PMS_P2;Temp;Humidity;BMP_temperature;BMP_pressure;BME280_temperature;BME280_humidity;BME280_pressure;Samples;Min_cycle;Max_cycle;Signal;HPM_P1;HPM_P2
2024/02/12 00:01:11;;;;;;;5.97;2.63;;;;;;;6.13;100.00;96550.00;6107802;19;19999;-74
2024/02/12 00:03:11;;;;;;;3.33;1.90;;;;;;;6.12;100.00;96548.41;6107865;19;20027;-74
2024/02/12 00:05:12;;;;;;;3.85;2.30;;;;;;;6.13;100.00;96550.00;6108408;19;20395;-74
2024/02/12 00:07:13;;;;;;;3.60;2.00;;;;;;;6.13;100.00;96539.78;6107069;19;20010;-74
2024/02/12 00:09:13;;;;;;;3.15;2.17;;;;;;;6.17;100.00;96548.78;6106743;19;19999;-74
2024/02/12 00:11:14;;;;;;;2.67;2.03;;;;;;;6.17;100.00;96551.53;6107555;19;20079;-74
2024/02/12 00:13:14;;;;;;;2.85;2.13;;;;;;;6.25;100.00;96546.81;6107630;19;20003;-74
2024/02/12 00:15:14;;;;;;;2.72;1.90;;;;;;;6.24;100.00;96539.75;6106744;19;20007;-74
2024/02/12 00:17:15;;;;;;;3.42;2.05;;;;;;;6.21;100.00;96543.31;6107118;19;20006;-74
2024/02/12 00:19:17;;;;;;;3.13;2.17;;;;;;;6.17;100.00;96543.28;6105471;19;20007;-74
2024/02/12 00:21:18;;;;;;;3.15;2.05;;;;;;;6.13;100.00;96545.28;6107055;19;20003;-74
2024/02/12 00:23:18;;;;;;;3.30;1.77;;;;;;;6.20;100.00;96545.25;6106722;19;19999;-74
2024/02/12 00:25:19;;;;;;;4.47;1.70;;;;;;;6.18;100.00;96542.13;6108116;19;20347;-74
2024/02/12 00:27:20;;;;;;;3.28;1.95;;;;;;;6.25;100.00;96538.56;6106581;19;20022;-74
2024/02/12 00:29:20;;;;;;;4.90;1.80;;;;;;;6.28;100.00;96550.72;6106000;19;20006;-74
2024/02/12 00:31:21;;;;;;;3.85;1.70;;;;;;;6.38;100.00;96549.94;6106630;19;20346;-74
2024/02/12 00:33:22;;;;;;;2.75;1.70;;;;;;;6.35;100.00;96551.50;6108114;19;20344;-74
2024/02/12 00:35:25;;;;;;;3.35;1.58;;;;;;;6.30;100.00;96559.38;6106140;19;19999;-74
2024/02/12 00:37:26;;;;;;;1.77;1.67;;;;;;;6.27;100.00;96554.66;6105334;19;20011;-74
2024/02/12 00:39:27;;;;;;;2.15;1.70;;;;;;;6.27;100.00;96563.66;6105610;19;20451;-74
2024/02/12 00:41:27;;;;;;;2.50;1.60;;;;;;;6.27;100.00;96555.44;6107511;19;19999;-74
2024/02/12 00:43:28;;;;;;;1.95;1.42;;;;;;;6.20;100.00;96556.22;6110150;19;20396;-74
2024/02/12 00:45:28;;;;;;;2.42;1.80;;;;;;;6.21;100.00;96562.53;6110738;19;20482;-74
2024/02/12 00:47:29;;;;;;;2.55;1.85;;;;;;;6.19;100.00;96556.63;6099830;19;20009;-74
2024/02/12 00:49:29;;;;;;;2.08;1.60;;;;;;;6.17;100.00;96559.78;6111881;19;20002;-74
2024/02/12 00:51:30;;;;;;;2.30;1.45;;;;;;;6.18;100.00;96563.31;6112213;19;20002;-74
2024/02/12 00:53:30;;;;;;;3.58;1.95;;;;;;;6.20;100.00;96569.97;6112983;19;19994;-74
2024/02/12 00:55:30;;;;;;;1.92;1.50;;;;;;;6.25;100.00;96568.00;6111837;19;20080;-74
2024/02/12 00:57:31;;;;;;;4.85;1.75;;;;;;;6.18;100.00;96569.56;6107648;19;20066;-74
2024/02/12 00:59:31;;;;;;;2.63;2.00;;;;;;;6.18;100.00;96571.53;6110598;19;20006;-74
2024/02/12 01:01:33;;;;;;;2.10;1.60;;;;;;;6.22;100.00;96575.06;6112108;19;20014;-74
2024/02/12 01:03:35;;;;;;;4.22;1.77;;;;;;;6.17;100.00;96573.50;6111730;19;20350;-74
2024/02/12 01:05:36;;;;;;;4.63;1.90;;;;;;;6.15;100.00;96572.34;6109651;19;20018;-74
2024/02/12 01:07:38;;;;;;;3.35;1.90;;;;;;;6.20;100.00;96580.16;6110986;19;20619;-74
2024/02/12 01:09:39;;;;;;;2.95;1.90;;;;;;;6.20;100.00;96580.16;6112493;19;20540;-74
2024/02/12 01:11:42;;;;;;;2.63;1.73;;;;;;;6.18;100.00;96582.53;6111623;19;20009;-74
2024/02/12 01:13:44;;;;;;;3.78;1.73;;;;;;;6.17;100.00;96586.44;6110823;19;20007;-74
2024/02/12 01:15:47;;;;;;;1.83;1.65;;;;;;;6.18;100.00;96588.00;6110791;19;20516;-74
2024/02/12 01:17:48;;;;;;;4.30;2.00;;;;;;;6.21;100.00;96581.75;6110791;19;20361;-74
2024/02/12 01:19:51;;;;;;;3.08;1.85;;;;;;;6.17;100.00;96580.97;6110231;19;20013;-74
2024/02/12 01:21:51;;;;;;;3.28;1.80;;;;;;;6.24;100.00;96583.69;6112023;19;20034;-74
2024/02/12 01:23:52;;;;;;;2.33;1.90;;;;;;;6.20;100.00;96583.69;6111351;19;20002;-74
2024/02/12 01:25:55;;;;;;;5.38;2.28;;;;;;;6.14;100.00;96587.25;6110563;19;20013;-74
2024/02/12 01:27:56;;;;;;;3.13;1.80;;;;;;;6.19;100.00;96584.09;6107231;19;20002;-74
2024/02/12 01:29:56;;;;;;;4.07;1.95;;;;;;;6.19;100.00;96582.13;6111285;19;20007;-74
2024/02/12 01:31:57;;;;;;;2.92;2.08;;;;;;;6.20;100.00;96574.66;6110951;19;20462;-74
2024/02/12 01:33:57;;;;;;;3.13;2.00;;;;;;;6.19;100.00;96593.09;6112039;19;20014;-74
2024/02/12 01:35:58;;;;;;;2.25;1.77;;;;;;;6.19;100.00;96582.13;6111192;19;20007;-74
2024/02/12 01:37:58;;;;;;;4.68;1.80;;;;;;;6.16;100.00;96577.44;6108346;19;20002;-74
2024/02/12 01:39:59;;;;;;;3.55;1.85;;;;;;;6.13;100.00;96585.69;6110788;19;20023;-74
2024/02/12 01:42:08;;;;;;;2.92;2.08;;;;;;;6.15;100.00;96575.09;6110196;19;20002;-74
2024/02/12 01:44:09;;;;;;;4.00;1.70;;;;;;;6.15;100.00;96583.31;6110392;19;20007;-74
2024/02/12 01:46:09;;;;;;;2.50;1.80;;;;;;;6.14;100.00;96588.03;6109659;19;20010;-74
2024/02/12 01:48:10;;;;;;;2.42;1.80;;;;;;;6.10;100.00;96578.22;6100270;19;20250;-74
2024/02/12 01:50:12;;;;;;;2.35;1.73;;;;;;;6.04;100.00;96588.03;6102360;19;20013;-74
2024/02/12 01:52:13;;;;;;;3.53;2.05;;;;;;;6.04;100.00;96588.03;6102197;19;20022;-74
2024/02/12 01:54:15;;;;;;;4.22;1.80;;;;;;;5.99;100.00;96578.25;6102091;19;20156;-74
2024/02/12 01:56:16;;;;;;;3.97;1.90;;;;;;;5.99;100.00;96591.97;6102267;19;20006;-74
2024/02/12 01:58:17;;;;;;;2.92;2.00;;;;;;;5.95;100.00;96585.69;6101485;19;20010;-74
2024/02/12 02:00:21;;;;;;;2.47;1.55;;;;;;;5.95;100.00;96584.91;6100113;19;20546;-74
2024/02/12 02:02:21;;;;;;;3.30;1.73;;;;;;;5.98;100.00;96595.91;6101157;19;20095;-74
2024/02/12 02:04:24;;;;;;;2.35;1.63;;;;;;;5.94;100.00;96600.59;6101993;19;20015;-74
2024/02/12 02:06:25;;;;;;;2.63;1.60;;;;;;;5.95;100.00;96601.38;6101790;19;20006;-74
2024/02/12 02:08:33;;;;;;;2.30;1.90;;;;;;;5.99;100.00;96597.47;6100642;19;20066;-74
2024/02/12 02:10:33;;;;;;;2.78;2.05;;;;;;;5.98;100.00;96603.34;6098002;19;19999;-74
2024/02/12 02:12:33;;;;;;;2.60;1.88;;;;;;;5.96;100.00;96603.75;6101675;19;20006;-74
2024/02/12 02:14:35;;;;;;;1.98;1.63;;;;;;;5.95;100.00;96599.41;6101389;19;20089;-74
2024/02/12 02:16:36;;;;;;;2.83;1.90;;;;;;;5.92;100.00;96597.47;6101858;19;20003;-74
2024/02/12 02:18:36;;;;;;;3.90;2.55;;;;;;;5.93;100.00;96596.28;6097097;19;20738;-74
2024/02/12 02:20:37;;;;;;;3.17;2.17;;;;;;;5.90;100.00;96597.84;6099989;19;20013;-74
2024/02/12 02:22:38;;;;;;;2.88;2.28;;;;;;;5.89;100.00;96590.00;6101787;19;20755;-74
2024/02/12 02:24:39;;;;;;;2.37;1.73;;;;;;;5.86;100.00;96599.00;6102037;19;20349;-74
2024/02/12 02:26:39;;;;;;;2.90;2.10;;;;;;;5.92;100.00;96597.47;6100058;19;20002;-74
2024/02/12 02:28:40;;;;;;;2.42;2.00;;;;;;;5.98;100.00;96600.59;6098958;19;20042;-74
2024/02/12 02:30:42;;;;;;;2.95;2.10;;;;;;;5.96;100.00;96601.00;6100154;19;20009;-74
2024/02/12 02:32:42;;;;;;;2.47;2.00;;;;;;;5.89;100.00;96599.00;6100435;19;20010;-74
2024/02/12 02:34:43;;;;;;;5.45;2.00;;;;;;;5.93;100.00;96603.72;6098869;19;20425;-74
2024/02/12 02:36:48;;;;;;;4.10;1.88;;;;;;;5.87;100.00;96601.34;6101501;19;20536;-74
2024/02/12 02:38:49;;;;;;;9.32;2.55;;;;;;;5.83;100.00;96603.31;6098751;19;20011;-74
2024/02/12 02:40:50;;;;;;;3.38;2.38;;;;;;;5.77;100.00;96607.63;6097063;19;20245;-74
2024/02/12 02:42:50;;;;;;;2.90;2.10;;;;;;;5.72;100.00;96591.56;6100716;19;20332;-74
2024/02/12 02:44:52;;;;;;;2.90;2.22;;;;;;;5.68;100.00;96601.75;6101333;19;20016;-74
2024/02/12 02:46:54;;;;;;;2.67;2.40;;;;;;;5.60;100.00;96589.97;6102465;19;20504;-74
2024/02/12 02:48:58;;;;;;;5.05;2.10;;;;;;;5.61;100.00;96591.53;6107635;19;20017;-74
2024/02/12 02:50:58;;;;;;;3.65;1.95;;;;;;;5.53;100.00;96600.16;6107974;19;20006;-74
2024/02/12 02:52:59;;;;;;;3.67;2.20;;;;;;;5.49;100.00;96596.63;6108258;19;20010;-74
2024/02/12 02:55:00;;;;;;;3.70;2.22;;;;;;;5.41;100.00;96601.31;6107987;19;20023;-74
2024/02/12 02:57:00;;;;;;;4.32;2.03;;;;;;;5.36;100.00;96597.00;6109156;19;20002;-74
2024/02/12 02:59:01;;;;;;;3.55;2.50;;;;;;;5.28;100.00;96597.38;6107786;19;20010;-74
2024/02/12 03:01:01;;;;;;;4.13;2.42;;;;;;;5.25;100.00;96601.69;6110057;19;20014;-74
2024/02/12 03:03:03;;;;;;;3.15;2.22;;;;;;;5.24;100.00;96611.09;6109735;19;20088;-74
2024/02/12 03:05:03;;;;;;;4.78;1.92;;;;;;;5.19;100.00;96610.66;6108582;19;20021;-74
2024/02/12 03:07:06;;;;;;;3.30;2.00;;;;;;;5.13;100.00;96610.28;6109220;19;20380;-74
2024/02/12 03:09:07;;;;;;;3.08;2.20;;;;;;;5.13;100.00;96599.31;6108070;19;20010;-74
2024/02/12 03:11:08;;;;;;;4.22;1.92;;;;;;;5.08;100.00;96605.16;6108591;19;20026;-74
2024/02/12 03:13:09;;;;;;;3.17;2.10;;;;;;;5.06;100.00;96607.53;6109551;19;20003;-74
2024/02/12 03:15:11;;;;;;;2.38;1.92;;;;;;;5.08;100.00;96605.94;6108101;19;20005;-74
2024/02/12 03:17:11;;;;;;;4.10;2.20;;;;;;;5.07;100.00;96609.88;6109332;19;20416;-74
2024/02/12 03:19:11;;;;;;;3.42;2.60;;;;;;;5.18;100.00;96606.38;6107240;19;20356;-74
2024/02/12 03:21:18;;;;;;;3.10;1.88;;;;;;;5.20;100.00;96609.50;6106821;19;20466;-74
2024/02/12 03:23:20;;;;;;;2.30;1.60;;;;;;;5.23;100.00;96614.22;6107702;19;20036;-74
2024/02/12 03:25:21;;;;;;;1.90;1.45;;;;;;;5.25;100.00;96617.34;6108530;19;20558;-74
2024/02/12 03:27:23;;;;;;;3.10;1.70;;;;;;;5.28;100.00;96617.34;6107902;19;20066;-74
2024/02/12 03:29:24;;;;;;;4.63;1.98;;;;;;;5.30;100.00;96614.25;6107227;19;19998;-74
2024/02/12 03:31:25;;;;;;;2.50;1.45;;;;;;;5.28;100.00;96614.59;6106383;19;20324;-74
2024/02/12 03:33:25;;;;;;;1.65;1.55;;;;;;;5.29;100.00;96621.66;6108204;19;20009;-74
2024/02/12 03:35:25;;;;;;;2.78;2.05;;;;;;;5.29;100.00;96621.66;6106962;19;20487;-74
2024/02/12 03:37:27;;;;;;;3.05;1.60;;;;;;;5.32;100.00;96631.09;6106550;19;20010;-74
2024/02/12 03:39:29;;;;;;;3.25;1.88;;;;;;;5.27;100.00;96632.22;6107212;19;20042;-74
2024/02/12 03:41:29;;;;;;;2.28;1.48;;;;;;;5.27;100.00;96628.72;6106314;19;20002;-74
2024/02/12 03:43:30;;;;;;;2.13;1.70;;;;;;;5.28;100.00;96633.03;6107137;19;20452;-74
2024/02/12 03:45:31;;;;;;;2.58;1.73;;;;;;;5.35;100.00;96630.28;6106907;19;20022;-74
2024/02/12 03:47:38;;;;;;;1.83;1.42;;;;;;;5.34;100.00;96632.25;6105585;19;20316;-74
2024/02/12 04:01:13;;;;;;;2.65;1.25;;;;;;;5.13;100.00;96658.81;6106183;19;20013;-74
2024/02/12 04:03:13;;;;;;;1.80;1.45;;;;;;;5.10;100.00;96659.59;6107197;19;20062;-74
2024/02/12 04:05:14;;;;;;;2.88;1.83;;;;;;;5.10;100.00;96662.34;6106271;19;20057;-74
2024/02/12 04:07:15;;;;;;;1.90;1.52;;;;;;;5.06;100.00;96663.13;6105619;19;20348;-74
2024/02/12 04:09:16;;;;;;;3.47;1.88;;;;;;;5.04;100.00;96670.94;6105287;19;20029;-74
2024/02/12 04:11:16;;;;;;;2.95;1.88;;;;;;;5.04;100.00;96672.88;6106038;19;20332;-74
2024/02/12 04:13:19;;;;;;;2.42;1.90;;;;;;;5.05;100.00;96660.78;6106421;19;20010;-74
2024/02/12 04:15:20;;;;;;;2.20;1.58;;;;;;;5.05;100.00;96674.47;6106774;19;20470;-74
2024/02/12 04:17:21;;;;;;;2.28;1.63;;;;;;;5.05;100.00;96671.75;6107308;19;20010;-73
2024/02/12 04:19:22;;;;;;;2.78;1.70;;;;;;;5.07;100.00;96674.88;6110077;19;20014;-74
2024/02/12 04:21:24;;;;;;;1.92;1.33;;;;;;;5.09;100.00;96661.56;6109913;19;20003;-74
2024/02/12 04:23:25;;;;;;;1.58;1.40;;;;;;;5.10;100.00;96668.59;6113189;19;20116;-74
2024/02/12 04:25:26;;;;;;;1.30;1.17;;;;;;;5.13;100.00;96672.53;6112121;19;20069;-73
2024/02/12 04:27:28;;;;;;;2.42;1.60;;;;;;;5.16;100.00;96667.06;6111991;19;20007;-74
2024/02/12 04:29:28;;;;;;;4.25;1.30;;;;;;;5.16;100.00;96669.81;6112122;19;20319;-74
2024/02/12 04:31:29;;;;;;;1.42;1.25;;;;;;;5.14;100.00;96661.19;6112423;19;20015;-74
2024/02/12 04:33:32;;;;;;;2.03;1.42;;;;;;;5.14;100.00;96654.94;6111919;19;20109;-74
2024/02/12 04:35:35;;;;;;;1.20;1.02;;;;;;;5.13;100.00;96664.31;6112918;19;20610;-74
2024/02/12 04:37:35;;;;;;;;;;;;;;;5.12;100.00;96673.69;6111597;19;20002;-74
2024/02/12 04:39:36;;;;;;;2.25;1.00;;;;;;;5.05;100.00;96667.03;6107570;19;19913;-74
2024/02/12 04:41:40;;;;;;;2.35;1.13;;;;;;;5.02;100.00;96665.06;6110314;19;19999;-74
2024/02/12 04:43:41;;;;;;;1.35;1.15;;;;;;;4.96;100.00;96668.53;6111934;19;20009;-74
2024/02/12 04:45:41;;;;;;;2.85;0.90;;;;;;;4.91;100.00;96669.72;6110733;19;20002;-74
2024/02/12 04:47:42;;;;;;;1.63;1.15;;;;;;;4.88;100.00;96672.41;6109792;19;20006;-74
2024/02/12 04:49:43;;;;;;;2.90;1.20;;;;;;;4.83;100.00;96684.53;6110155;19;20642;-74
2024/02/12 04:51:44;;;;;;;2.03;1.20;;;;;;;4.81;100.00;96683.38;6110744;19;20065;-74
2024/02/12 04:53:44;;;;;;;1.60;1.23;;;;;;;4.75;100.00;96691.16;6111534;19;20006;-74
2024/02/12 04:55:45;;;;;;;1.60;1.20;;;;;;;4.73;100.00;96693.50;6111458;19;20009;-74
2024/02/12 04:57:46;;;;;;;1.52;1.15;;;;;;;4.67;100.00;96689.53;6110332;19;20003;-74
2024/02/12 04:59:46;;;;;;;2.72;1.40;;;;;;;4.63;100.00;96688.72;6111003;19;20335;-74
2024/02/12 05:01:46;;;;;;;2.58;1.30;;;;;;;4.61;100.00;96699.28;6111137;19;20072;-73
2024/02/12 05:03:47;;;;;;;1.88;1.35;;;;;;;4.60;100.00;96697.72;6111705;19;20555;-74
2024/02/12 05:05:49;;;;;;;2.63;1.60;;;;;;;4.55;100.00;96701.63;6110624;19;20010;-74
2024/02/12 05:07:50;;;;;;;;;;;;;;;4.50;100.00;96702.75;6110315;19;20013;-74
2024/02/12 05:09:50;;;;;;;2.88;1.92;;;;;;;4.44;100.00;96703.47;6110397;19;19990;-74
2024/02/12 05:11:50;;;;;;;2.78;2.00;;;;;;;4.38;100.00;96707.72;6110708;19;20007;-74
2024/02/12 05:13:53;;;;;;;4.00;2.30;;;;;;;4.35;100.00;96706.53;6111220;19;20430;-74
2024/02/12 05:15:54;;;;;;;3.90;2.55;;;;;;;4.30;100.00;96712.38;6110784;19;20007;-74
2024/02/12 05:18:02;;;;;;;5.47;2.80;;;;;;;4.23;100.00;96709.59;6109445;19;20015;-74
2024/02/12 05:22:34;;;;;;;2.90;1.80;;;;;;;4.13;100.00;96713.78;6111315;19;20033;-73
2024/02/12 05:24:35;;;;;;;2.13;1.20;;;;;;;4.13;100.00;96715.75;6111016;19;20094;-74
2024/02/12 05:26:35;;;;;;;2.30;1.40;;;;;;;4.18;100.00;96718.16;6111508;19;20335;-74
2024/02/12 05:28:36;;;;;;;2.17;1.50;;;;;;;4.30;100.00;96720.56;6109756;19;20010;-74
2024/02/12 05:30:36;;;;;;;3.47;1.38;;;;;;;4.36;100.00;96715.53;6109647;19;20086;-73
2024/02/12 05:32:39;;;;;;;3.60;1.60;;;;;;;4.38;100.00;96729.63;6110245;19;20333;-74
2024/02/12 05:34:41;;;;;;;2.08;1.20;;;;;;;4.39;100.00;96732.00;6110500;19;19999;-74
2024/02/12 05:36:42;;;;;;;1.70;1.40;;;;;;;4.39;100.00;96723.03;6111248;19;20701;-74
2024/02/12 05:38:46;;;;;;;2.00;1.50;;;;;;;4.37;100.00;96731.59;6109612;19;19999;-74
2024/02/12 05:40:46;;;;;;;2.63;1.60;;;;;;;4.39;100.00;96732.00;6110093;19;20380;-73
2024/02/12 05:42:46;;;;;;;1.80;1.40;;;;;;;4.36;100.00;96735.50;6109813;19;20009;-74
2024/02/12 05:44:47;;;;;;;2.25;1.65;;;;;;;4.34;100.00;96735.09;6111896;19;20003;-74
2024/02/12 05:46:47;;;;;;;8.23;4.22;;;;;;;4.35;100.00;96738.63;6098755;19;20011;-74
2024/02/12 05:48:47;;;;;;;5.22;3.25;;;;;;;4.29;100.00;96740.91;6108302;19;20002;-74
2024/02/12 05:50:48;;;;;;;4.07;2.40;;;;;;;4.29;100.00;96746.38;6110884;19;20030;-74
2024/02/12 05:52:49;;;;;;;3.25;2.20;;;;;;;4.31;100.00;96740.56;6110080;19;20340;-74
2024/02/12 05:54:49;;;;;;;3.42;2.20;;;;;;;4.31;100.00;96735.09;6107841;19;20021;-74
2024/02/12 05:56:49;;;;;;;3.47;2.47;;;;;;;4.32;100.00;96745.66;6110426;19;20307;-73
2024/02/12 05:58:50;;;;;;;4.10;2.20;;;;;;;4.32;100.00;96740.16;6108431;19;20006;-74
2024/02/12 06:00:51;;;;;;;4.53;2.22;;;;;;;4.28;100.00;96744.03;6109626;19;20332;-74
2024/02/12 06:02:52;;;;;;;2.92;2.33;;;;;;;4.29;100.00;96751.06;6107685;19;20002;-74
2024/02/12 06:04:52;;;;;;;4.15;2.55;;;;;;;4.27;100.00;96745.19;6109409;19;20020;-74
2024/02/12 06:06:52;;;;;;;3.38;2.17;;;;;;;4.25;100.00;96748.31;6107803;19;20002;-74
2024/02/12 06:08:53;;;;;;;5.72;1.98;;;;;;;4.28;100.00;96744.81;6109336;19;20015;-74
2024/02/12 06:10:53;;;;;;;3.40;2.17;;;;;;;4.29;100.00;96746.38;6109837;19;20014;-74
2024/02/12 06:12:54;;;;;;;3.40;2.00;;;;;;;4.33;100.00;96751.91;6109590;19;20011;-74
2024/02/12 06:14:54;;;;;;;3.33;1.80;;;;;;;4.34;100.00;96751.53;6108727;19;20026;-74
2024/02/12 06:16:54;;;;;;;2.28;1.80;;;;;;;4.39;100.00;96761.34;6108826;19;20006;-74
2024/02/12 06:19:00;;;;;;;3.33;1.90;;;;;;;4.41;100.00;96761.75;6107790;19;20002;-74
2024/02/12 06:21:00;;;;;;;3.80;2.10;;;;;;;4.44;100.00;96769.19;6108638;19;19999;-73
2024/02/12 06:23:02;;;;;;;1.60;1.50;;;;;;;4.42;100.00;96766.84;6107763;19;20411;-74
2024/02/12 06:25:05;;;;;;;2.60;1.80;;;;;;;4.43;100.00;96773.09;6109148;19;20039;-74
2024/02/12 06:27:07;;;;;;;3.10;1.90;;;;;;;4.44;100.00;96775.47;6109284;19;20270;-74
2024/02/12 06:29:08;;;;;;;2.72;1.77;;;;;;;4.46;100.00;96778.59;6105607;19;20007;-74
2024/02/12 06:31:09;;;;;;;2.40;2.13;;;;;;;4.50;100.00;96795.88;6109089;19;20339;-74
2024/02/12 06:33:10;;;;;;;3.88;2.55;;;;;;;4.53;100.00;96785.31;6108588;19;20364;-74
2024/02/12 06:35:10;;;;;;;3.53;2.47;;;;;;;4.53;100.00;96791.56;6109267;19;20003;-74
2024/02/12 06:37:11;;;;;;;3.40;1.90;;;;;;;4.48;100.00;96800.94;6106884;19;20007;-74
2024/02/12 06:39:11;;;;;;;4.55;2.00;;;;;;;4.46;100.00;96791.50;6105372;19;20002;-74
2024/02/12 06:41:12;;;;;;;3.00;1.98;;;;;;;4.41;100.00;96803.59;6106858;19;20010;-74
2024/02/12 06:43:12;;;;;;;3.95;2.30;;;;;;;4.35;100.00;96804.31;6108392;19;20391;-73
2024/02/12 06:45:13;;;;;;;3.72;1.90;;;;;;;4.27;100.00;96803.47;6109448;19;20018;-74
2024/02/12 06:47:14;;;;;;;3.13;2.00;;;;;;;4.24;100.00;96806.97;6102959;19;20542;-74
2024/02/12 06:49:15;;;;;;;5.40;2.20;;;;;;;4.21;100.00;96811.22;6100472;19;20030;-74
2024/02/12 06:51:15;;;;;;;3.85;2.08;;;;;;;4.21;100.00;96811.22;6100732;19;20359;-74
2024/02/12 06:53:17;;;;;;;6.50;2.60;;;;;;;4.21;100.00;96813.19;6101573;19;20577;-74
2024/02/12 06:55:17;;;;;;;6.72;2.40;;;;;;;4.20;100.00;96817.09;6102255;19;20070;-74
2024/02/12 06:57:18;;;;;;;4.47;2.45;;;;;;;4.19;100.00;96819.03;6100863;19;20007;-74
2024/02/12 06:59:18;;;;;;;5.60;2.58;;;;;;;4.16;100.00;96814.34;6099918;19;20011;-74
2024/02/12 07:01:18;;;;;;;6.45;3.58;;;;;;;4.16;100.00;96828.03;6100495;19;20356;-74
2024/02/12 07:03:19;;;;;;;4.82;3.08;;;;;;;4.15;100.00;96823.72;6100634;19;20006;-74
2024/02/12 07:05:20;;;;;;;4.18;2.75;;;;;;;4.11;100.00;96833.81;6101074;19;20526;-74
2024/02/12 07:07:20;;;;;;;4.35;2.50;;;;;;;4.15;100.00;96834.66;6101196;19;20038;-73
2024/02/12 07:09:21;;;;;;;2.70;2.17;;;;;;;4.16;100.00;96832.72;6099643;19;20459;-74
2024/02/12 07:11:21;;;;;;;5.97;2.65;;;;;;;4.22;100.00;96839.44;6101396;19;20378;-73
2024/02/12 07:13:22;;;;;;;4.78;2.85;;;;;;;4.21;100.00;96833.13;6100716;19;20029;-73
2024/02/12 07:15:22;;;;;;;6.50;3.03;;;;;;;4.22;100.00;96831.22;6100436;19;20259;-74
2024/02/12 07:17:23;;;;;;;4.72;2.50;;;;;;;4.24;100.00;96837.09;6100667;19;20011;-74
2024/02/12 07:19:23;;;;;;;7.30;3.22;;;;;;;4.22;100.00;96847.63;6099079;19;20026;-73
2024/02/12 07:21:23;;;;;;;6.18;2.78;;;;;;;4.22;100.00;96851.16;6100854;19;20450;-73
2024/02/12 07:23:24;;;;;;;4.50;3.47;;;;;;;4.21;100.00;96846.81;6101440;19;20013;-74
2024/02/12 07:25:24;;;;;;;8.13;3.10;;;;;;;4.25;100.00;96849.63;6100080;19;20265;-74
2024/02/12 07:27:25;;;;;;;4.97;3.63;;;;;;;4.27;100.00;96847.28;6099734;19;20024;-74
2024/02/12 07:29:25;;;;;;;3.40;3.05;;;;;;;4.29;100.00;96850.41;6100660;19;20002;-74
2024/02/12 07:31:26;;;;;;;9.45;4.65;;;;;;;4.34;100.00;96860.25;6099948;19;20003;-74
2024/02/12 07:33:26;;;;;;;7.53;5.10;;;;;;;4.36;100.00;96860.66;6100031;19;20343;-74
2024/02/12 07:35:29;;;;;;;8.40;5.82;;;;;;;4.39;100.00;96863.44;6100668;19;20528;-74
2024/02/12 07:37:29;;;;;;;30.90;17.48;;;;;;;4.41;100.00;96863.84;6098876;19;20001;-74
2024/02/12 07:39:29;;;;;;;24.45;13.38;;;;;;;4.47;100.00;96876.03;6099673;19;20026;-74
2024/02/12 07:41:30;;;;;;;15.25;8.85;;;;;;;4.51;100.00;96879.59;6100183;19;20086;-74
2024/02/12 07:43:31;;;;;;;17.67;7.88;;;;;;;4.55;100.00;96895.25;6100788;19;20110;-74
2024/02/12 07:45:34;;;;;;;15.55;7.72;;;;;;;4.58;100.00;96894.53;6099444;19;20003;-74
2024/02/12 07:47:37;;;;;;;11.57;6.32;;;;;;;4.60;100.00;96890.25;6102875;19;20030;-74
2024/02/12 07:49:37;;;;;;;10.50;4.13;;;;;;;4.62;100.00;96892.59;6107077;19;20006;-74
2024/02/12 07:51:40;;;;;;;7.03;4.38;;;;;;;4.64;100.00;96896.56;6109950;19;20062;-74
2024/02/12 07:53:40;;;;;;;8.80;4.10;;;;;;;4.67;100.00;96898.53;6113121;19;20018;-74
2024/02/12 07:55:41;;;;;;;8.70;5.10;;;;;;;4.68;100.00;96893.84;6113226;19;20368;-74
2024/02/12 07:57:44;;;;;;;12.07;6.13;;;;;;;4.73;100.00;96902.50;6112293;19;20006;-74
2024/02/12 07:59:44;;;;;;;51.10;25.23;;;;;;;4.76;100.00;96898.22;6112910;19;20096;-73
2024/02/12 08:01:45;;;;;;;38.35;19.35;;;;;;;4.79;100.00;96895.50;6112512;19;20478;-73
2024/02/12 08:03:45;;;;;;;21.55;11.82;;;;;;;4.85;100.00;96909.63;6112921;19;20505;-74
2024/02/12 08:05:47;;;;;;;15.45;9.50;;;;;;;4.92;100.00;96906.19;6113023;19;20003;-74
2024/02/12 08:07:47;;;;;;;8.77;5.28;;;;;;;4.94;100.00;96901.88;6111526;19;20513;-74
2024/02/12 08:09:47;;;;;;;5.03;3.40;;;;;;;5.03;100.00;96915.25;6113654;19;20017;-74
2024/02/12 08:11:48;;;;;;;5.10;3.50;;;;;;;5.06;100.00;96907.09;6112531;19;20067;-74
2024/02/12 08:13:50;;;;;;;6.22;3.85;;;;;;;5.13;100.00;96900.88;6112519;19;20013;-74
2024/02/12 08:15:50;;;;;;;8.40;4.38;;;;;;;5.18;100.00;96910.69;6113392;19;20002;-74
2024/02/12 08:17:52;;;;;;;6.40;3.65;;;;;;;5.24;100.00;96909.19;6110506;19;19998;-74
2024/02/12 08:19:54;;;;;;;7.00;3.00;;;;;;;5.32;100.00;96913.53;6111731;19;19999;-74
2024/02/12 08:21:54;;;;;;;5.10;2.75;;;;;;;5.38;100.00;96908.47;6113097;19;20463;-74
2024/02/12 08:23:54;;;;;;;6.88;3.03;;;;;;;5.44;100.00;96915.19;6112369;19;20044;-74
2024/02/12 08:25:54;;;;;;;6.32;3.42;;;;;;;5.50;100.00;96914.44;6111841;19;20003;-74
2024/02/12 08:27:55;;;;;;;4.60;3.05;;;;;;;5.58;100.00;96921.53;6111848;19;20022;-74
2024/02/12 08:29:55;;;;;;;5.78;3.00;;;;;;;5.62;100.00;96919.59;6110941;19;20094;-74
2024/02/12 08:31:56;;;;;;;5.18;3.03;;;;;;;5.70;100.00;96928.66;6111975;19;20550;-74
2024/02/12 08:33:57;;;;;;;4.20;2.80;;;;;;;5.74;100.00;96931.44;6112692;19;20543;-74
2024/02/12 08:35:58;;;;;;;4.15;2.90;;;;;;;5.82;100.00;96941.28;6111529;19;20358;-74
2024/02/12 08:37:58;;;;;;;5.03;3.70;;;;;;;5.93;100.00;96928.41;6110358;19;19999;-74
2024/02/12 08:39:58;;;;;;;3.40;2.45;;;;;;;6.02;100.00;96948.06;6109082;19;20014;-74
2024/02/12 08:41:59;;;;;;;5.45;2.85;;;;;;;6.09;100.00;96937.13;6112409;19;20650;-74
2024/02/12 08:43:59;;;;;;;3.38;2.67;;;;;;;6.17;100.00;96943.44;6111127;19;20075;-74
2024/02/12 08:46:00;;;;;;;6.70;3.33;;;;;;;6.18;100.00;96942.25;6112389;19;20455;-74
2024/02/12 08:48:01;;;;;;;6.38;4.07;;;;;;;6.23;100.00;96949.34;6110891;19;20044;-74
2024/02/12 08:50:03;;;;;;;6.43;3.80;;;;;;;6.25;100.00;96947.78;6110883;19;20043;-74
2024/02/12 08:52:04;;;;;;;4.88;3.97;;;;;;;6.30;100.00;96952.13;6112014;19;20476;-74
2024/02/12 08:54:04;;;;;;;10.20;5.85;;;;;;;6.32;100.00;96947.03;6110571;19;19999;-74
2024/02/12 08:56:05;;;;;;;8.95;5.55;;;;;;;6.37;100.00;96957.63;6112231;19;20005;-74
2024/02/12 08:58:05;;;;;;;7.47;3.75;;;;;;;6.44;100.00;96955.69;6108794;19;19994;-74
2024/02/12 09:00:06;;;;;;;5.88;3.92;;;;;;;6.55;100.00;96961.25;6110361;19;20603;-74
2024/02/12 09:02:07;;;;;;;7.07;4.20;;;;;;;6.61;100.00;96967.91;6111814;19;20428;-74
2024/02/12 09:04:07;;;;;;;6.45;4.00;;;;;;;6.64;100.00;96960.88;6110070;19;20032;-74
2024/02/12 09:06:11;;;;;;;5.90;3.90;;;;;;;6.63;100.00;96971.06;6110602;19;20447;-74
2024/02/12 09:08:12;;;;;;;5.10;3.15;;;;;;;6.63;100.00;96975.78;6110229;19;20018;-74
2024/02/12 09:10:13;;;;;;;5.25;3.35;;;;;;;6.64;100.00;96972.66;6111887;19;20348;-74
2024/02/12 09:12:13;;;;;;;5.53;3.35;;;;;;;6.68;100.00;96970.69;6110419;19;20507;-74
2024/02/12 09:14:16;;;;;;;5.53;3.17;;;;;;;6.73;100.00;96983.28;6111487;19;20020;-74
2024/02/12 09:16:17;;;;;;;4.05;2.83;;;;;;;6.70;100.00;96984.03;6111393;19;20425;-74
2024/02/12 09:18:18;;;;;;;4.75;3.42;;;;;;;6.72;100.00;96984.44;6110351;19;20181;-74
2024/02/12 09:20:18;;;;;;;4.35;2.72;;;;;;;6.70;100.00;96990.34;6110732;19;20003;-74
2024/02/12 09:22:18;;;;;;;4.03;2.60;;;;;;;6.69;100.00;96987.97;6110894;19;20110;-73
2024/02/12 09:24:19;;;;;;;4.07;2.70;;;;;;;6.64;100.00;96994.63;6111088;19;20322;-74
2024/02/12 09:26:19;;;;;;;6.28;3.53;;;;;;;6.61;100.00;97006.38;6110957;19;20011;-74
2024/02/12 09:28:20;;;;;;;4.63;3.17;;;;;;;6.76;100.00;97001.72;6109918;19;20011;-74
2024/02/12 09:30:21;;;;;;;3.88;2.53;;;;;;;6.85;100.00;97013.13;6109999;19;20380;-74
2024/02/12 09:32:21;;;;;;;7.28;3.83;;;;;;;6.91;100.00;97013.56;6111420;19;20384;-74
2024/02/12 09:34:21;;;;;;;15.40;8.60;;;;;;;6.98;100.00;97021.81;6109734;19;20013;-74
2024/02/12 09:36:24;;;;;;;19.65;9.68;;;;;;;7.01;100.00;97018.28;6110678;19;20011;-73
2024/02/12 09:38:25;;;;;;;;;;;;;;;7.00;100.00;97017.50;6111957;19;20491;-74
2024/02/12 09:40:26;;;;;;;7.10;4.88;;;;;;;6.99;100.00;97024.19;6109887;19;19918;-74
2024/02/12 09:42:28;;;;;;;8.98;5.10;;;;;;;6.90;100.00;97014.72;6111889;19;20378;-74
2024/02/12 09:44:29;;;;;;;7.65;5.05;;;;;;;6.94;100.00;97021.78;6111489;19;20014;-74